»·PEaware :: N1422E KSBA-KBUR

N1422E :: KSBA-KBUR

FLIGHT INFORMATION

Flight Status: Arrived
Operator: Privately registered:
United States
More flights under this callsign
Pilot: Jonathan B. (787)
Aircraft: BEECH AIRCRAFT BARON
(BE58)
More flights by this aircraft type
Origin: KSBA Santa Barbara Mun
United States
Destination: KBUR Bob Hope-Burbank
United States
More flights between these airports :: More routes between these airports
Route:
File this flight plan on PilotEdge
Remarks: cat
Altitude:
(Current/Filed)
5,500ft
Speed:
(Current/Filed)
160kts
Departed: 05-Nov-16 07:25 PM
Arrived: 05-Nov-16 07:58 PM
Distance/Time
Traveled:
75nm/0:33
Distance/Time
To Go:
Arrived

Flight Plot

Page will automatically refresh every two minutes.


Map Options




Map Legend


Flown Route
Filed Route
Departure Airport
Arrival Airport
Navaid (VOR, NDB)
Fix

Horizontal Profiles

Position Reports

Time Latitude Longitude Heading Altitude Ground
Speed
05-Nov-16 18:53 34.432693 -119.835606 155 13ft 0kts
05-Nov-16 18:54 34.432693 -119.835606 155 13ft 0kts
05-Nov-16 18:55 34.432693 -119.835606 155 13ft 0kts
05-Nov-16 18:56 34.432693 -119.835606 155 13ft 0kts
05-Nov-16 18:57 34.432693 -119.835606 155 13ft 0kts
05-Nov-16 18:58 34.432693 -119.835606 155 13ft 0kts
05-Nov-16 18:59 34.432693 -119.835606 155 13ft 0kts
05-Nov-16 19:00 34.432693 -119.835606 155 13ft 0kts
05-Nov-16 19:01 34.432693 -119.835606 155 13ft 0kts
05-Nov-16 19:02 34.432693 -119.835606 155 13ft 0kts
05-Nov-16 19:03 34.432693 -119.835606 155 13ft 0kts
05-Nov-16 19:04 34.432693 -119.835606 155 13ft 0kts
05-Nov-16 19:05 34.432693 -119.835606 155 13ft 0kts
05-Nov-16 19:06 34.432693 -119.835606 155 13ft 0kts
05-Nov-16 19:07 34.432693 -119.835606 155 13ft 0kts
05-Nov-16 19:08 34.432693 -119.835606 155 13ft 0kts
05-Nov-16 19:09 34.432693 -119.835606 155 13ft 0kts
05-Nov-16 19:10 34.432693 -119.835606 155 13ft 0kts
05-Nov-16 19:11 34.431359 -119.837858 250 13ft 14kts
05-Nov-16 19:12 34.430689 -119.839743 240 13ft 0kts
05-Nov-16 19:13 34.430689 -119.839743 240 13ft 0kts
05-Nov-16 19:14 34.430689 -119.839743 240 13ft 0kts
05-Nov-16 19:15 34.430689 -119.839743 240 13ft 0kts
05-Nov-16 19:16 34.430670 -119.839783 240 13ft 0kts
05-Nov-16 19:17 34.430670 -119.839783 240 13ft 0kts
05-Nov-16 19:18 34.430670 -119.839783 240 13ft 0kts
05-Nov-16 19:19 34.429688 -119.840025 166 13ft 43kts
05-Nov-16 19:20 34.400058 -119.834172 171 1315ft 123kts
05-Nov-16 19:21 34.372287 -119.825808 161 1504ft 120kts
05-Nov-16 19:22 34.348432 -119.793603 74 2568ft 126kts
05-Nov-16 19:23 34.341015 -119.758262 105 3559ft 156kts
05-Nov-16 19:24 34.335136 -119.713346 115 4380ft 136kts
05-Nov-16 19:25 34.336212 -119.666934 64 4818ft 140kts
05-Nov-16 19:26 34.337565 -119.628219 60 5577ft 137kts
05-Nov-16 19:27 34.362574 -119.578560 64 5506ft 174kts
05-Nov-16 19:28 34.372150 -119.531332 83 5500ft 124kts
05-Nov-16 19:29 34.377935 -119.476686 87 5519ft 192kts
05-Nov-16 19:30 34.352855 -119.420021 103 5534ft 202kts
05-Nov-16 19:31 34.347079 -119.351092 96 5524ft 207kts
05-Nov-16 19:32 34.341121 -119.282743 97 5428ft 204kts
05-Nov-16 19:33 34.331551 -119.218563 101 5165ft 199kts
05-Nov-16 19:34 34.326795 -119.156939 96 5521ft 186kts
05-Nov-16 19:35 34.317506 -119.097745 106 5698ft 173kts
05-Nov-16 19:36 34.307163 -119.041744 97 4650ft 157kts
05-Nov-16 19:37 34.299254 -118.993733 101 3237ft 137kts
05-Nov-16 19:38 34.290672 -118.938293 101 3135ft 196kts
05-Nov-16 19:39 34.280212 -118.872506 102 3422ft 190kts
05-Nov-16 19:40 34.270907 -118.816322 103 3688ft 159kts
05-Nov-16 19:41 34.262426 -118.764349 102 3702ft 156kts
05-Nov-16 19:42 34.245886 -118.719357 117 3699ft 155kts
05-Nov-16 19:43 34.236471 -118.675905 106 3707ft 156kts
05-Nov-16 19:44 34.227890 -118.638819 106 3701ft 162kts
05-Nov-16 19:45 34.219301 -118.602633 106 3704ft 173kts
05-Nov-16 19:46 34.209473 -118.562397 106 3700ft 187kts
05-Nov-16 19:47 34.200098 -118.515168 93 3189ft 187kts
05-Nov-16 19:48 34.199195 -118.473456 90 2508ft 142kts
05-Nov-16 19:49 34.198657 -118.432094 90 1827ft 115kts
05-Nov-16 19:50 34.198220 -118.394292 90 1241ft 117kts
05-Nov-16 19:51 34.197813 -118.362295 91 780ft 65kts
05-Nov-16 19:52 34.198621 -118.357961 1 780ft 0kts
05-Nov-16 19:53 34.200208 -118.359416 300 780ft 0kts
05-Nov-16 19:54 34.200208 -118.359416 300 780ft 0kts
05-Nov-16 19:55 34.200208 -118.359416 300 780ft 0kts
05-Nov-16 19:56 34.200208 -118.359416 300 780ft 0kts

Navigation Log

Ident Type
Flight plan parsing failed, navigation log unavailable